Time,TemperatureF,DewpointF,PressureIn,WindDirection,WindDirectionDegrees,WindSpeedMPH,WindSpeedGustMPH,Humidity,HourlyPrecipIn,Conditions,Clouds,dailyrainin,SoftwareType,DateUTC
2013-05-29 00:13:00,59.1,55.0,29.78,NNE,22,0.0,0.0,85,0.00,,,0.00,weatherlink.com 1.10,2013-05-29 07:13:00,
2013-05-29 00:28:00,58.7,54.0,29.78,NNE,33,0.0,0.0,85,0.00,,,0.00,weatherlink.com 1.10,2013-05-29 07:28:00,
2013-05-29 00:43:00,58.1,54.0,29.78,NNE,33,0.0,0.0,86,0.00,,,0.00,weatherlink.com 1.10,2013-05-29 07:43:00,
2013-05-29 00:58:00,57.8,54.0,29.78,SSE,153,0.0,1.0,87,0.00,,,0.00,weatherlink.com 1.10,2013-05-29 07:58:00,
2013-05-29 01:13:00,57.2,53.0,29.78,SSE,153,0.0,0.0,87,0.00,,,0.00,weatherlink.com 1.10,2013-05-29 08:13:00,
2013-05-29 01:28:00,57.1,54.0,29.78,South,186,0.0,1.0,88,0.00,,,0.00,weatherlink.com 1.10,2013-05-29 08:28:00,
2013-05-29 01:43:00,57.3,54.0,29.78,SW,219,0.0,0.0,88,0.00,,,0.00,weatherlink.com 1.10,2013-05-29 08:43:00,
2013-05-29 01:58:00,57.3,54.0,29.78,WNW,289,0.0,1.0,87,0.00,,,0.00,weatherlink.com 1.10,2013-05-29 08:58:00,
2013-05-29 02:13:00,57.2,54.0,29.79,WNW,289,0.0,0.0,88,0.00,,,0.00,weatherlink.com 1.10,2013-05-29 09:13:00,
2013-05-29 02:29:00,56.9,53.0,29.78,WNW,289,0.0,0.0,88,0.00,,,0.00,weatherlink.com 1.10,2013-05-29 09:29:00,
2013-05-29 02:44:00,56.6,54.0,29.78,WNW,289,0.0,0.0,89,0.00,,,0.00,weatherlink.com 1.10,2013-05-29 09:44:00,
2013-05-29 02:59:00,56.3,53.0,29.78,WNW,289,0.0,0.0,89,0.00,,,0.00,weatherlink.com 1.10,2013-05-29 09:59:00,
2013-05-29 03:14:00,55.9,53.0,29.78,NE,38,0.0,1.0,90,0.00,,,0.00,weatherlink.com 1.10,2013-05-29 10:14:00,
2013-05-29 03:29:00,55.6,53.0,29.78,NE,38,0.0,1.0,90,0.00,,,0.00,weatherlink.com 1.10,2013-05-29 10:29:00,
2013-05-29 03:44:00,55.6,53.0,29.78,NE,38,0.0,0.0,91,0.00,,,0.00,weatherlink.com 1.10,2013-05-29 10:44:00,
2013-05-29 03:59:00,55.8,53.0,29.77,ENE,77,1.0,1.0,91,0.00,,,0.00,weatherlink.com 1.10,2013-05-29 10:59:00,
2013-05-29 04:14:00,55.9,53.0,29.77,ENE,72,0.0,1.0,91,0.00,,,0.00,weatherlink.com 1.10,2013-05-29 11:14:00,
2013-05-29 04:29:00,55.4,53.0,29.77,ENE,71,0.0,1.0,91,0.00,,,0.00,weatherlink.com 1.10,2013-05-29 11:29:00,
2013-05-29 04:44:00,55.0,53.0,29.78,ENE,73,0.0,1.0,91,0.00,,,0.00,weatherlink.com 1.10,2013-05-29 11:44:00,
2013-05-29 04:59:00,55.0,52.0,29.78,ENE,70,0.0,1.0,90,0.00,,,0.00,weatherlink.com 1.10,2013-05-29 11:59:00,
2013-05-29 05:14:00,54.5,52.0,29.79,ENE,70,0.0,0.0,90,0.00,,,0.00,weatherlink.com 1.10,2013-05-29 12:14:00,
2013-05-29 05:29:00,54.4,52.0,29.78,ENE,66,1.0,1.0,91,0.00,,,0.00,weatherlink.com 1.10,2013-05-29 12:29:00,
2013-05-29 05:44:00,54.6,52.0,29.78,ENE,67,0.0,2.0,91,0.00,,,0.00,weatherlink.com 1.10,2013-05-29 12:44:00,
2013-05-29 05:59:00,54.9,52.0,29.79,East,91,0.0,4.0,91,0.00,,,0.00,weatherlink.com 1.10,2013-05-29 12:59:00,
2013-05-29 06:14:00,55.6,53.0,29.78,ENE,75,0.0,5.0,91,0.00,,,0.00,weatherlink.com 1.10,2013-05-29 13:14:00,
2013-05-29 06:29:00,57.5,55.0,29.79,NE,35,0.0,3.0,90,0.00,,,0.00,weatherlink.com 1.10,2013-05-29 13:29:00,
2013-05-29 06:44:00,59.1,55.0,29.80,ENE,70,0.0,3.0,86,0.00,,,0.00,weatherlink.com 1.10,2013-05-29 13:44:00,
2013-05-29 06:59:00,60.4,56.0,29.80,East,79,0.0,2.0,84,0.00,,,0.00,weatherlink.com 1.10,2013-05-29 13:59:00,
2013-05-29 07:14:00,61.5,56.0,29.80,WSW,257,0.0,2.0,81,0.00,,,0.00,weatherlink.com 1.10,2013-05-29 14:14:00,
2013-05-29 07:29:00,63.0,56.0,29.80,SW,226,0.0,2.0,78,0.00,,,0.00,weatherlink.com 1.10,2013-05-29 14:29:00,
2013-05-29 07:44:00,62.7,56.0,29.81,SW,224,0.0,2.0,79,0.00,,,0.00,weatherlink.com 1.10,2013-05-29 14:44:00,
2013-05-29 07:59:00,64.5,56.0,29.81,SW,231,0.0,2.0,75,0.00,,,0.00,weatherlink.com 1.10,2013-05-29 14:59:00,
2013-05-29 08:14:00,67.3,57.0,29.81,West,271,1.0,3.0,69,0.00,,,0.00,weatherlink.com 1.10,2013-05-29 15:14:00,
2013-05-29 08:29:00,68.6,58.0,29.82,WSW,258,2.0,3.0,68,0.00,,,0.00,weatherlink.com 1.10,2013-05-29 15:29:00,
2013-05-29 08:44:00,68.5,58.0,29.82,WSW,251,1.0,4.0,69,0.00,,,0.00,weatherlink.com 1.10,2013-05-29 15:44:00,
2013-05-29 08:59:00,69.1,59.0,29.82,WSW,245,5.0,5.0,69,0.00,,,0.00,weatherlink.com 1.10,2013-05-29 15:59:00,
2013-05-29 09:14:00,69.3,59.0,29.82,South,186,1.0,4.0,69,0.00,,,0.00,weatherlink.com 1.10,2013-05-29 16:14:00,
2013-05-29 09:30:00,70.7,59.0,29.82,West,273,2.0,5.0,67,0.00,,,0.00,weatherlink.com 1.10,2013-05-29 16:30:00,
2013-05-29 09:45:00,71.6,60.0,29.82,WSW,247,2.0,3.0,66,0.00,,,0.00,weatherlink.com 1.10,2013-05-29 16:45:00,
2013-05-29 10:00:00,72.0,60.0,29.82,WNW,292,2.0,5.0,67,0.00,,,0.00,weatherlink.com 1.10,2013-05-29 17:00:00,
2013-05-29 10:15:00,71.9,59.0,29.82,WSW,247,2.0,7.0,65,0.00,,,0.00,weatherlink.com 1.10,2013-05-29 17:15:00,
2013-05-29 10:30:00,72.8,59.0,29.82,WSW,246,3.0,6.0,63,0.00,,,0.00,weatherlink.com 1.10,2013-05-29 17:30:00,
2013-05-29 10:45:00,73.4,59.0,29.82,West,276,0.0,6.0,62,0.00,,,0.00,weatherlink.com 1.10,2013-05-29 17:45:00,
2013-05-29 11:00:00,74.8,59.0,29.82,ENE,62,0.0,5.0,59,0.00,,,0.00,weatherlink.com 1.10,2013-05-29 18:00:00,
2013-05-29 11:15:00,75.9,59.0,29.82,West,280,3.0,4.0,56,0.00,,,0.00,weatherlink.com 1.10,2013-05-29 18:15:00,
2013-05-29 11:30:00,76.6,59.0,29.82,WSW,255,2.0,6.0,54,0.00,,,0.00,weatherlink.com 1.10,2013-05-29 18:30:00,
2013-05-29 11:45:00,77.6,57.0,29.81,SSW,209,2.0,7.0,49,0.00,,,0.00,weatherlink.com 1.10,2013-05-29 18:45:00,
2013-05-29 12:00:00,77.5,57.0,29.81,NW,308,5.0,6.0,49,0.00,,,0.00,weatherlink.com 1.10,2013-05-29 19:00:00,
2013-05-29 12:15:00,77.1,57.0,29.80,WSW,257,0.0,6.0,50,0.00,,,0.00,weatherlink.com 1.10,2013-05-29 19:15:00,
2013-05-29 12:30:00,78.1,57.0,29.80,SSW,213,2.0,7.0,49,0.00,,,0.00,weatherlink.com 1.10,2013-05-29 19:30:00,
2013-05-29 12:45:00,78.6,57.0,29.80,SW,221,2.0,7.0,47,0.00,,,0.00,weatherlink.com 1.10,2013-05-29 19:45:00,
2013-05-29 13:00:00,78.4,56.0,29.79,West,277,2.0,7.0,46,0.00,,,0.00,weatherlink.com 1.10,2013-05-29 20:00:00,
2013-05-29 13:15:00,78.9,57.0,29.78,SSE,168,3.0,5.0,47,0.00,,,0.00,weatherlink.com 1.10,2013-05-29 20:15:00,
2013-05-29 13:30:00,78.7,56.0,29.77,ESE,117,1.0,9.0,46,0.00,,,0.00,weatherlink.com 1.10,2013-05-29 20:30:00,
2013-05-29 13:45:00,78.0,56.0,29.77,WSW,252,4.0,9.0,46,0.00,,,0.00,weatherlink.com 1.10,2013-05-29 20:45:00,
2013-05-29 14:00:00,79.2,57.0,29.77,NNE,17,1.0,6.0,46,0.00,,,0.00,weatherlink.com 1.10,2013-05-29 21:00:00,
2013-05-29 14:15:00,79.7,56.0,29.77,West,259,1.0,5.0,45,0.00,,,0.00,weatherlink.com 1.10,2013-05-29 21:15:00,
2013-05-29 14:30:00,80.6,56.0,29.77,WSW,243,6.0,8.0,43,0.00,,,0.00,weatherlink.com 1.10,2013-05-29 21:30:00,
2013-05-29 14:45:00,78.8,57.0,29.76,SSW,198,1.0,8.0,47,0.00,,,0.00,weatherlink.com 1.10,2013-05-29 21:45:00,
2013-05-29 15:00:00,80.1,56.0,29.75,SE,131,1.0,6.0,44,0.00,,,0.00,weatherlink.com 1.10,2013-05-29 22:00:00,
2013-05-29 15:15:00,80.3,57.0,29.75,WSW,248,2.0,6.0,45,0.00,,,0.00,weatherlink.com 1.10,2013-05-29 22:15:00,
2013-05-29 15:30:00,78.3,57.0,29.74,WSW,241,2.0,7.0,48,0.00,,,0.00,weatherlink.com 1.10,2013-05-29 22:30:00,
2013-05-29 15:45:00,77.3,57.0,29.74,SSW,192,1.0,6.0,50,0.00,,,0.00,weatherlink.com 1.10,2013-05-29 22:45:00,
2013-05-29 16:00:00,76.4,57.0,29.73,SW,223,2.0,10.0,51,0.00,,,0.00,weatherlink.com 1.10,2013-05-29 23:00:00,
2013-05-29 16:15:00,76.7,57.0,29.73,SE,134,1.0,6.0,50,0.00,,,0.00,weatherlink.com 1.10,2013-05-29 23:15:00,
2013-05-29 16:31:00,75.3,57.0,29.73,SW,230,6.0,8.0,53,0.00,,,0.00,weatherlink.com 1.10,2013-05-29 23:31:00,
2013-05-29 16:46:00,75.0,58.0,29.73,SSW,206,1.0,7.0,55,0.00,,,0.00,weatherlink.com 1.10,2013-05-29 23:46:00,
2013-05-29 17:01:00,74.7,57.0,29.73,SSE,153,1.0,6.0,55,0.00,,,0.00,weatherlink.com 1.10,2013-05-30 00:01:00,
2013-05-29 17:16:00,74.6,58.0,29.73,SSW,213,1.0,6.0,57,0.00,,,0.00,weatherlink.com 1.10,2013-05-30 00:16:00,
2013-05-29 17:31:00,75.1,58.0,29.73,SE,144,0.0,8.0,55,0.00,,,0.00,weatherlink.com 1.10,2013-05-30 00:31:00,
2013-05-29 17:46:00,75.1,58.0,29.72,WSW,241,3.0,7.0,55,0.00,,,0.00,weatherlink.com 1.10,2013-05-30 00:46:00,
2013-05-29 18:01:00,73.1,56.0,29.72,SSW,207,2.0,9.0,56,0.00,,,0.00,weatherlink.com 1.10,2013-05-30 01:01:00,
2013-05-29 18:16:00,72.6,56.0,29.72,West,260,0.0,6.0,57,0.00,,,0.00,weatherlink.com 1.10,2013-05-30 01:16:00,
2013-05-29 18:31:00,71.5,56.0,29.72,WSW,250,3.0,6.0,59,0.00,,,0.00,weatherlink.com 1.10,2013-05-30 01:31:00,
2013-05-29 18:46:00,71.0,57.0,29.72,SSW,210,2.0,6.0,61,0.00,,,0.00,weatherlink.com 1.10,2013-05-30 01:46:00,
2013-05-29 19:01:00,71.3,57.0,29.72,SE,134,2.0,5.0,60,0.00,,,0.00,weatherlink.com 1.10,2013-05-30 02:01:00,
2013-05-29 19:16:00,70.4,57.0,29.72,SW,217,0.0,4.0,62,0.00,,,0.00,weatherlink.com 1.10,2013-05-30 02:16:00,
2013-05-29 19:31:00,68.3,56.0,29.72,SSE,155,0.0,6.0,65,0.00,,,0.00,weatherlink.com 1.10,2013-05-30 02:31:00,
2013-05-29 19:46:00,67.3,56.0,29.72,SW,230,0.0,3.0,67,0.00,,,0.00,weatherlink.com 1.10,2013-05-30 02:46:00,
2013-05-29 20:01:00,65.8,56.0,29.72,East,89,0.0,3.0,71,0.00,,,0.00,weatherlink.com 1.10,2013-05-30 03:01:00,
2013-05-29 20:16:00,64.4,56.0,29.73,WSW,241,0.0,2.0,73,0.00,,,0.00,weatherlink.com 1.10,2013-05-30 03:16:00,
2013-05-29 20:31:00,63.7,55.0,29.73,WSW,248,0.0,5.0,74,0.00,,,0.00,weatherlink.com 1.10,2013-05-30 03:31:00,
2013-05-29 20:46:00,63.2,55.0,29.73,SW,233,0.0,1.0,75,0.00,,,0.00,weatherlink.com 1.10,2013-05-30 03:46:00,
2013-05-29 21:01:00,62.7,55.0,29.73,East,100,0.0,1.0,76,0.00,,,0.00,weatherlink.com 1.10,2013-05-30 04:01:00,
2013-05-29 21:16:00,62.0,55.0,29.74,SSE,164,0.0,1.0,77,0.00,,,0.00,weatherlink.com 1.10,2013-05-30 04:16:00,
2013-05-29 21:31:00,61.5,55.0,29.75,SE,137,0.0,1.0,78,0.00,,,0.00,weatherlink.com 1.10,2013-05-30 04:31:00,
2013-05-29 21:46:00,60.4,54.0,29.75,ESE,123,0.0,1.0,80,0.00,,,0.00,weatherlink.com 1.10,2013-05-30 04:46:00,
2013-05-29 22:01:00,60.0,54.0,29.76,ENE,74,0.0,2.0,80,0.00,,,0.00,weatherlink.com 1.10,2013-05-30 05:01:00,
2013-05-29 22:16:00,60.3,54.0,29.76,WSW,250,0.0,1.0,80,0.00,,,0.00,weatherlink.com 1.10,2013-05-30 05:16:00,
2013-05-29 22:31:00,60.4,54.0,29.77,WSW,250,0.0,0.0,79,0.00,,,0.00,weatherlink.com 1.10,2013-05-30 05:31:00,
2013-05-29 22:50:00,59.8,54.0,29.77,East,83,0.0,1.0,81,0.00,,,0.00,weatherlink.com 1.10,2013-05-30 05:50:00,
2013-05-29 23:03:00,59.6,53.0,29.77,SSE,167,0.0,1.0,80,0.00,,,0.00,weatherlink.com 1.10,2013-05-30 06:03:00,
2013-05-29 23:18:00,58.8,53.0,29.77,SSE,167,0.0,0.0,81,0.00,,,0.00,weatherlink.com 1.10,2013-05-30 06:18:00,
2013-05-29 23:30:00,58.4,52.9,29.78,North,360,0.0,0.0,82,0.00,,,0.00,Cumulus v1.9.2,2013-05-30 06:30:00,
2013-05-29 23:33:00,58.4,53.0,29.78,SSE,167,0.0,0.0,83,0.00,,,0.00,weatherlink.com 1.10,2013-05-30 06:33:00,
2013-05-29 23:48:00,57.8,53.0,29.78,SSE,167,0.0,0.0,84,0.00,,,0.00,weatherlink.com 1.10,2013-05-30 06:48:00,